Ufs Tw-Ems, Germany

2:30 PM CEST on April 18, 2015 (GMT +0200)
Awg-1 Sea | | Change Station
CLOSE
Current Station
Airport
Location: Awg-1 Sea,
Elevation: 85 ft
Nearby Weather Stations

Elev 85 ft 53.49 °N, 5.94 °E | Updated 35 minutes ago

Mostly Cloudy
Mostly Cloudy
45 °F
Feels Like 38 °F
N
14
Wind Variable Wind from North

Today
High -- | Low -- °F
--% Chance of Precip.
Yesterday
High -- | Low -- °F
Precip. -- in
6:27 AM 8:41 PM
Waning Crescent, 0% visible
Pressure 30.39 in
Visibility 6.2 miles
Clouds Few 900 ft
Mostly Cloudy 1100 ft
Windchill 38 °F
Dew Point 39 °F
Humidity 81%
Rainfall 0.00 in
Snow Depth Not available.
UV 4 out of 12
Pollen Not available.
Air Quality Not available.
Flu Activity Not available.
METAR EHMA 181155Z AUTO 36012KT 9999 FEW009/// BKN011/// 07/04 Q1029

More Conditions Fewer Conditions

Pressure 30.39 in
Visibility 6.2 miles
Clouds Few 900 ft
Mostly Cloudy 1100 ft
Windchill 38 °F
Dew Point 39 °F
Humidity 81%
Rainfall 0.00 in
Snow Depth Not available.
UV 4 out of 12
Pollen Not available.
Air Quality Not available.
Flu Activity Not available.
METAR EHMA 181155Z AUTO 36012KT 9999 FEW009/// BKN011/// 07/04 Q1029

More Conditions Fewer Conditions

10-Day Weather Forecast

Almanac

Astronomy

Apr. 18, 2015 Rise Set
Actual Time
Civil Twilight
Nautical Twilight
Astronomical Twilight
Moon
Length of Visible Light
Length of Day
Tomorrow will be .
, % of the Moon is Illuminated

Today's Extremes

Country Highs Country Lows

Community

WunderPhotos

Upload Photos

1,814,376 photos uploaded!

WunderBlogs® & News

Nearby

Air Quality

  Air Quality AQ Index Pollutant
Not available.

Snow Depth

Station Depth Elevation

Earthquake Activity

City Distance Mag. Time & Date
Minimum magnitude displayed is 2.5.

Coastal Water Temperatures

Place Temperature

Stations

Nearby Weather Stations

Station Location Temp. Windchill Dew Point Humidity Wind Precip. Elev Updated Type